Terminal Aerodrome Forecast
Issued by NWS

Home | Current Version | Previous Version | Text Only | Print | Product List | Glossary On
Versions: 1 2 3 4 5 6 7 8 9 10 11 12 13 14 15 16 17 18 19 20 21 22 23 24 25 26 27
000
FTUS43 KGRB 251700
TAFRHI
TAF
KRHI 251724Z 2518/2618 30013G24KT P6SM SKC
     FM252300 28008KT P6SM SKC WS015/31030KT
     FM260500 29004KT P6SM SKC WS015/32030KT
     FM260900 29003KT P6SM SKC
     FM261500 27004KT P6SM SCT250=

USA.gov is the U.S. government's official web portal to all federal, state and local government web resources and services.